Station: Kuemmersruck, ICAO: ETGK, Synop: Synop: 10771,
Koordinaten: 4926'00''N 01154'00''E, Hoehe: 419m, Entfernung: 27.63km


Station: GAERMERSDORF, ICAO: EDZH, Synop: ,
Koordinaten: 49 25 N 011 54 E, Hoehe: 419m, Entfernung: 28.34km


Station: FEUCHT (USA-AF), ICAO: EDIG, Synop: Synop: 10764,
Koordinaten: 49 23 N 011 11 E, Hoehe: 386m, Entfernung: 30.06km


Station: GRAFENWOHR (USA, ICAO: EDIC, Synop: ,
Koordinaten: 49 42 N 011 56 E, Hoehe: 415m, Entfernung: 34.52km


Station: Grafenwoehr, ICAO: ETIC, Synop: Synop: 10687,
Koordinaten: 4942'00''N 01157'00''E, Hoehe: 415m, Entfernung: 35.51km
2017/12/12 08:19
ETIC 120819Z AUTO 24008G15KT 9999 -RA OVC022 02/M02 A2963 RMK AO2 RAB01E11RAB19 SLP053 $


Station: Nuernberg, ICAO: EDDN, Synop: Synop: 10763,
Koordinaten: 4930'00''N 01103'00''E, Hoehe: 318m, Entfernung: 35.55km
2017/12/12 08:20
EDDN 120820Z 24010KT 210V270 9999 OVC025 03/M02 Q1005 R28/CLRD// NOSIG


mehr Wetter
WetterInfo - adds.pl 2.6.003 DL3EL © 2004-2017 [154889]